Time;durP1;ratioP1;P1;durP2;ratioP2;P2;SDS_P1;SDS_P2;PMS_P1;PMS_P2;Temp;Humidity;BMP_temperature;BMP_pressure;BME280_temperature;BME280_humidity;BME280_pressure;Samples;Min_cycle;Max_cycle;Signal;HPM_P1;HPM_P2
2023/11/02 00:02:22;;;;;;;3.70;1.00;;;7.70;7.60;;;;;;4994052;28;20987;-68
2023/11/02 00:04:49;;;;;;;2.20;1.00;;;7.70;8.40;;;;;;4994334;28;20447;-68
2023/11/02 00:07:14;;;;;;;2.40;1.00;;;7.70;9.00;;;;;;4994194;28;20420;-68
2023/11/02 00:09:40;;;;;;;2.83;1.10;;;7.70;8.50;;;;;;4992734;28;20415;-68
2023/11/02 00:12:11;;;;;;;2.20;0.93;;;7.70;8.60;;;;;;4993791;28;20206;-68
2023/11/02 00:14:45;;;;;;;2.27;1.23;;;7.70;9.00;;;;;;4994168;28;20418;-68
2023/11/02 00:17:35;;;;;;;2.17;1.10;;;7.70;8.90;;;;;;4992861;28;20432;-68
2023/11/02 00:20:03;;;;;;;2.33;1.00;;;7.60;8.90;;;;;;4999638;28;20800;-68
2023/11/02 00:22:28;;;;;;;2.10;1.00;;;7.70;8.40;;;;;;4992528;28;20500;-68
2023/11/02 00:25:00;;;;;;;2.10;1.00;;;7.60;8.90;;;;;;4992546;28;20532;-68
2023/11/02 00:27:26;;;;;;;2.13;1.20;;;7.60;9.30;;;;;;4993860;28;20184;-68
2023/11/02 00:29:51;;;;;;;2.40;1.67;;;7.70;9.00;;;;;;4992362;28;20415;-68
2023/11/02 00:32:17;;;;;;;2.90;1.30;;;7.70;9.60;;;;;;4993658;28;20261;-69
2023/11/02 00:34:43;;;;;;;3.27;0.90;;;7.90;8.30;;;;;;4993609;28;20654;-68
2023/11/02 00:37:08;;;;;;;3.37;1.17;;;8.00;7.80;;;;;;4993682;28;20514;-68
2023/11/02 00:39:34;;;;;;;3.10;0.83;;;8.00;7.00;;;;;;4993087;28;20256;-68
2023/11/02 00:41:59;;;;;;;4.00;1.23;;;8.10;6.80;;;;;;4991988;28;20206;-68
2023/11/02 00:44:27;;;;;;;2.87;1.30;;;8.20;6.90;;;;;;4993702;28;20175;-68
2023/11/02 00:46:52;;;;;;;2.00;1.07;;;8.20;5.80;;;;;;5008588;28;20182;-68
2023/11/02 00:49:29;;;;;;;3.77;1.27;;;8.20;4.80;;;;;;4993304;28;20429;-68
2023/11/02 00:51:57;;;;;;;2.47;1.10;;;8.30;4.90;;;;;;4993207;28;20694;-68
2023/11/02 00:54:53;;;;;;;1.77;0.97;;;8.30;4.90;;;;;;4993290;28;20418;-68
2023/11/02 00:57:22;;;;;;;2.47;1.33;;;8.30;5.60;;;;;;4992073;28;20485;-68
2023/11/02 00:59:48;;;;;;;2.47;1.40;;;8.30;6.90;;;;;;4993019;28;20415;-68
2023/11/02 01:02:14;;;;;;;2.63;1.90;;;8.20;8.10;;;;;;4991479;28;20454;-68
2023/11/02 01:04:51;;;;;;;3.50;1.93;;;8.30;8.70;;;;;;4993040;28;20413;-68
2023/11/02 01:07:16;;;;;;;3.23;1.90;;;8.30;8.90;;;;;;4991775;28;20956;-68
2023/11/02 01:09:50;;;;;;;3.53;2.43;;;8.30;9.30;;;;;;4992935;28;20452;-68
2023/11/02 01:12:32;;;;;;;5.17;3.00;;;8.30;9.30;;;;;;5059785;23;20238;-70
2023/11/02 01:14:58;;;;;;;5.83;2.20;;;8.30;10.30;;;;;;5010487;28;20424;-70
2023/11/02 01:17:32;;;;;;;4.80;2.70;;;8.30;10.90;;;;;;5012059;28;20418;-70
2023/11/02 01:20:33;;;;;;;4.87;3.10;;;8.30;12.20;;;;;;5011731;28;20413;-70
2023/11/02 01:23:04;;;;;;;3.63;2.23;;;8.20;13.10;;;;;;5011927;28;20496;-70
2023/11/02 01:25:30;;;;;;;4.30;2.40;;;8.10;14.10;;;;;;5011907;28;20963;-70
2023/11/02 01:28:03;;;;;;;4.43;3.40;;;8.10;14.80;;;;;;5010498;28;20964;-70
2023/11/02 01:30:40;;;;;;;5.90;3.30;;;8.10;15.30;;;;;;5011403;28;20882;-70
2023/11/02 01:33:38;;;;;;;5.50;2.70;;;8.10;15.90;;;;;;5011751;28;20417;-70
2023/11/02 01:36:05;;;;;;;3.50;2.73;;;8.10;15.70;;;;;;5011477;28;20464;-70
2023/11/02 01:38:32;;;;;;;3.83;3.23;;;8.10;15.80;;;;;;5010252;28;20429;-70
2023/11/02 01:41:07;;;;;;;4.53;2.80;;;8.20;14.70;;;;;;5011408;28;20437;-70
2023/11/02 01:43:41;;;;;;;4.87;2.17;;;8.30;14.60;;;;;;5011825;28;20504;-70
2023/11/02 01:46:18;;;;;;;3.57;2.97;;;8.30;14.40;;;;;;5011850;28;20411;-70
2023/11/02 01:48:51;;;;;;;4.37;2.90;;;8.30;14.00;;;;;;5011624;28;20412;-70
2023/11/02 01:51:31;;;;;;;3.50;2.57;;;8.30;14.30;;;;;;5009342;28;20456;-70
2023/11/02 01:54:05;;;;;;;8.57;2.90;;;8.40;14.10;;;;;;5011651;28;20412;-70
2023/11/02 01:56:49;;;;;;;3.40;2.53;;;8.40;13.80;;;;;;5011665;28;20991;-70
2023/11/02 01:59:39;;;;;;;3.23;2.20;;;8.40;13.80;;;;;;5011265;28;20421;-70
2023/11/02 02:02:32;;;;;;;2.77;1.70;;;8.40;13.80;;;;;;5011007;28;20437;-70
2023/11/02 02:05:05;;;;;;;3.47;2.20;;;8.40;13.90;;;;;;5011380;28;21085;-70
2023/11/02 02:07:57;;;;;;;5.13;2.70;;;8.50;13.80;;;;;;5011448;28;20450;-70
2023/11/02 02:10:52;;;;;;;5.47;2.57;;;8.50;13.40;;;;;;5010879;28;20929;-70
2023/11/02 02:13:38;;;;;;;3.10;2.00;;;8.70;13.40;;;;;;4983072;28;20436;-70
2023/11/02 02:16:29;;;;;;;4.33;2.10;;;8.70;12.30;;;;;;5011243;28;20456;-70
2023/11/02 02:19:05;;;;;;;4.07;2.30;;;8.80;12.40;;;;;;5007215;28;20428;-70
2023/11/02 02:21:42;;;;;;;3.13;2.40;;;8.80;11.70;;;;;;5011021;28;20437;-70
2023/11/02 02:24:19;;;;;;;3.23;1.80;;;8.90;10.70;;;;;;5011217;28;20914;-70
2023/11/02 02:26:44;;;;;;;2.77;1.93;;;9.00;9.80;;;;;;5011211;28;20429;-70
2023/11/02 02:29:16;;;;;;;12.40;2.43;;;9.00;9.00;;;;;;5011064;28;20425;-70
2023/11/02 02:32:03;;;;;;;2.97;1.93;;;9.10;9.00;;;;;;5010885;28;20205;-70
2023/11/02 02:34:49;;;;;;;2.50;1.80;;;9.10;8.50;;;;;;5011164;28;20412;-70
2023/11/02 02:37:29;;;;;;;3.97;2.40;;;9.10;8.80;;;;;;5010987;28;20453;-70
2023/11/02 02:40:06;;;;;;;3.53;2.93;;;9.10;9.00;;;;;;5011031;28;20856;-70
2023/11/02 02:42:35;;;;;;;3.43;2.13;;;9.10;9.10;;;;;;5010889;28;20494;-70
2023/11/02 02:45:07;;;;;;;3.87;2.80;;;9.10;9.30;;;;;;5010942;28;20498;-70
2023/11/02 02:47:36;;;;;;;4.07;2.37;;;9.00;8.50;;;;;;5011032;28;20409;-70
2023/11/02 02:50:02;;;;;;;2.80;2.03;;;9.00;8.30;;;;;;5010715;28;20468;-70
2023/11/02 02:52:29;;;;;;;4.33;2.07;;;9.10;8.40;;;;;;5010725;28;20866;-70
2023/11/02 02:54:57;;;;;;;4.20;2.60;;;9.10;8.40;;;;;;5010796;28;20439;-70
2023/11/02 02:57:28;;;;;;;3.40;2.50;;;9.20;8.40;;;;;;5010830;28;20476;-70
2023/11/02 02:59:56;;;;;;;4.77;2.13;;;9.20;7.90;;;;;;5009443;28;20426;-70
2023/11/02 03:02:26;;;;;;;3.23;2.17;;;9.30;8.00;;;;;;5013521;28;20438;-70
2023/11/02 03:04:55;;;;;;;2.30;1.83;;;9.30;7.40;;;;;;5014673;28;20807;-70
2023/11/02 03:07:24;;;;;;;3.77;2.20;;;9.30;6.80;;;;;;5014381;28;20409;-70
2023/11/02 03:09:54;;;;;;;4.27;2.37;;;9.40;6.40;;;;;;5014274;28;20455;-70
2023/11/02 03:12:26;;;;;;;2.40;1.30;;;9.40;5.60;;;;;;5014063;28;20442;-70
2023/11/02 03:14:54;;;;;;;2.37;1.47;;;9.50;4.90;;;;;;5012852;28;20462;-70
2023/11/02 03:17:55;;;;;;;2.33;1.40;;;9.60;4.70;;;;;;5014248;28;20949;-70
2023/11/02 03:20:21;;;;;;;2.17;1.47;;;9.60;4.10;;;;;;5013771;28;20414;-70
2023/11/02 03:22:47;;;;;;;2.00;1.10;;;9.70;4.40;;;;;;5014202;28;20421;-70
2023/11/02 03:25:23;;;;;;;2.97;1.97;;;9.80;3.30;;;;;;5014444;28;20780;-70
2023/11/02 03:27:49;;;;;;;4.40;1.47;;;9.80;2.30;;;;;;5014207;28;20682;-70
2023/11/02 03:30:29;;;;;;;10.23;2.60;;;9.90;2.30;;;;;;5013720;28;20411;-70
2023/11/02 03:33:13;;;;;;;2.33;1.50;;;9.80;3.00;;;;;;5014013;28;20318;-70
2023/11/02 03:36:02;;;;;;;2.30;1.13;;;9.80;2.20;;;;;;5014007;28;20454;-70
2023/11/02 03:38:30;;;;;;;2.57;1.47;;;9.90;1.70;;;;;;5014081;28;20944;-70
2023/11/02 03:41:22;;;;;;;2.30;1.60;;;9.90;1.40;;;;;;5013637;28;20431;-70
2023/11/02 03:44:14;;;;;;;2.97;1.30;;;10.00;1.00;;;;;;5013936;28;20414;-70
2023/11/02 03:47:02;;;;;;;3.77;1.93;;;10.10;1.00;;;;;;5013923;28;20417;-70
2023/11/02 03:49:35;;;;;;;1.90;1.13;;;10.10;1.00;;;;;;5014120;28;20426;-70
2023/11/02 03:52:24;;;;;;;3.43;1.80;;;10.10;1.00;;;;;;5014168;28;20440;-70
2023/11/02 03:55:31;;;;;;;4.57;1.50;;;10.10;1.00;;;;;;5014312;28;20430;-71
2023/11/02 03:58:29;;;;;;;3.50;1.43;;;10.10;1.00;;;;;;4983265;28;20498;-70
2023/11/02 04:01:08;;;;;;;2.40;1.57;;;10.10;1.00;;;;;;5013463;28;20419;-70
2023/11/02 04:03:38;;;;;;;4.33;1.70;;;10.10;1.00;;;;;;5014008;28;20411;-70
2023/11/02 04:06:08;;;;;;;2.20;1.20;;;10.10;1.00;;;;;;5014126;28;20435;-70
2023/11/02 04:08:38;;;;;;;2.30;1.50;;;10.10;1.00;;;;;;5014097;28;20418;-71
2023/11/02 04:11:29;;;;;;;2.43;0.90;;;10.20;1.00;;;;;;5013432;28;20534;-71
2023/11/02 04:14:16;;;;;;;2.57;1.60;;;10.20;1.00;;;;;;5013203;28;20410;-71
2023/11/02 04:16:42;;;;;;;3.30;2.00;;;10.20;1.00;;;;;;5013638;28;20544;-70
2023/11/02 04:19:07;;;;;;;2.20;1.20;;;10.20;1.00;;;;;;5013818;28;20502;-70
2023/11/02 04:21:34;;;;;;;2.40;1.20;;;10.20;1.00;;;;;;5013276;28;20259;-71
2023/11/02 04:23:59;;;;;;;2.67;1.67;;;10.30;1.00;;;;;;5012460;28;20538;-70
2023/11/02 04:26:27;;;;;;;3.67;1.43;;;10.30;1.00;;;;;;5013583;28;20498;-70
2023/11/02 04:28:53;;;;;;;2.20;1.17;;;10.30;1.00;;;;;;5013528;28;20296;-70
2023/11/02 04:31:18;;;;;;;5.53;1.53;;;10.30;1.00;;;;;;5013016;28;20810;-70
2023/11/02 04:33:44;;;;;;;2.30;1.20;;;10.30;1.00;;;;;;5013381;28;20195;-70
2023/11/02 04:36:09;;;;;;;3.43;1.40;;;10.30;1.00;;;;;;5012093;28;20526;-70
2023/11/02 04:38:35;;;;;;;1.70;0.80;;;10.30;1.00;;;;;;5014470;28;20183;-69
2023/11/02 04:41:01;;;;;;;7.07;1.60;;;10.20;1.00;;;;;;5013053;28;20210;-70
2023/11/02 04:43:27;;;;;;;2.03;1.00;;;10.20;1.00;;;;;;5013195;28;20259;-70
2023/11/02 04:45:52;;;;;;;1.90;0.90;;;10.30;1.00;;;;;;5015352;28;20171;-70
2023/11/02 04:48:18;;;;;;;2.27;1.00;;;10.30;1.00;;;;;;5014966;28;20179;-69
2023/11/02 04:50:44;;;;;;;1.70;0.73;;;10.30;1.00;;;;;;5012384;28;20203;-69
2023/11/02 04:53:09;;;;;;;3.17;1.10;;;10.30;1.00;;;;;;5012674;28;20176;-69
2023/11/02 04:55:35;;;;;;;2.53;1.33;;;10.30;1.00;;;;;;5011049;28;20509;-69
2023/11/02 04:58:01;;;;;;;1.97;1.00;;;10.40;1.00;;;;;;5011351;28;20172;-69
2023/11/02 05:00:26;;;;;;;2.97;1.30;;;10.50;1.00;;;;;;5012054;28;20237;-69
2023/11/02 05:02:52;;;;;;;2.00;1.30;;;10.50;1.00;;;;;;5012256;28;20209;-69
2023/11/02 05:05:18;;;;;;;1.70;0.83;;;10.60;1.00;;;;;;5012390;28;20176;-69
2023/11/02 05:07:44;;;;;;;2.53;1.50;;;10.60;1.00;;;;;;5012389;28;20180;-69
2023/11/02 05:10:10;;;;;;;2.47;1.23;;;10.60;1.00;;;;;;5011814;28;20429;-69
2023/11/02 05:12:35;;;;;;;2.10;1.00;;;10.60;1.00;;;;;;5011898;28;20192;-69
2023/11/02 05:15:02;;;;;;;2.83;1.17;;;10.70;1.00;;;;;;5012135;28;20186;-69
2023/11/02 05:17:27;;;;;;;2.37;1.23;;;10.60;1.00;;;;;;5012092;28;20168;-69
2023/11/02 05:19:53;;;;;;;2.10;1.10;;;10.60;1.00;;;;;;5010660;28;20925;-69
2023/11/02 05:22:18;;;;;;;2.03;1.40;;;10.60;1.00;;;;;;5010564;28;20196;-69
2023/11/02 05:24:44;;;;;;;1.90;1.30;;;10.60;1.00;;;;;;5011929;28;20207;-69
2023/11/02 05:27:09;;;;;;;2.17;1.17;;;10.60;1.00;;;;;;5010468;28;20187;-69
2023/11/02 05:29:35;;;;;;;3.30;1.30;;;10.60;1.00;;;;;;5012222;28;20220;-71
2023/11/02 05:32:00;;;;;;;1.90;1.00;;;10.60;1.00;;;;;;5013088;28;20198;-71
2023/11/02 05:34:26;;;;;;;2.93;1.40;;;10.60;1.00;;;;;;5011895;28;20212;-70
2023/11/02 05:36:51;;;;;;;2.63;0.90;;;10.60;1.00;;;;;;5011812;28;20257;-70
2023/11/02 05:39:17;;;;;;;2.20;0.90;;;10.60;1.00;;;;;;5011858;28;20251;-68
2023/11/02 05:41:42;;;;;;;2.50;1.47;;;10.50;1.00;;;;;;5012060;28;20191;-70
2023/11/02 05:44:08;;;;;;;1.70;0.80;;;10.60;1.00;;;;;;5011946;28;20176;-70
2023/11/02 05:46:35;;;;;;;1.90;0.90;;;10.70;1.00;;;;;;5012064;28;20180;-70
2023/11/02 05:49:00;;;;;;;2.80;1.33;;;10.70;1.00;;;;;;5011786;28;20187;-70
2023/11/02 05:51:26;;;;;;;2.77;0.90;;;10.80;1.00;;;;;;5011664;28;20443;-69
2023/11/02 05:53:51;;;;;;;6.60;1.13;;;10.80;1.00;;;;;;5011778;28;20625;-69
2023/11/02 05:56:17;;;;;;;1.60;0.80;;;10.80;1.00;;;;;;5011811;28;20200;-69
2023/11/02 05:58:43;;;;;;;2.83;1.23;;;10.80;1.00;;;;;;5011797;28;20168;-69
2023/11/02 06:01:09;;;;;;;2.57;1.53;;;10.90;1.00;;;;;;5011380;28;20223;-69
2023/11/02 06:03:34;;;;;;;3.23;1.60;;;10.90;1.00;;;;;;5011617;28;20206;-69
2023/11/02 06:06:00;;;;;;;1.90;1.20;;;11.00;1.00;;;;;;5011717;28;20419;-69
2023/11/02 06:08:25;;;;;;;2.47;1.60;;;11.00;1.00;;;;;;5011887;28;20404;-69
2023/11/02 06:10:51;;;;;;;1.90;1.10;;;11.00;1.00;;;;;;5011052;28;20208;-69
2023/11/02 06:13:16;;;;;;;2.70;1.30;;;11.00;1.00;;;;;;5010341;28;20188;-69
2023/11/02 06:15:42;;;;;;;1.77;1.00;;;11.00;1.00;;;;;;5010002;28;20595;-69
2023/11/02 06:18:08;;;;;;;1.87;0.90;;;11.00;1.00;;;;;;5011498;28;20172;-69
2023/11/02 06:20:33;;;;;;;1.70;0.83;;;10.90;1.00;;;;;;5011095;28;20196;-69
2023/11/02 06:23:01;;;;;;;2.07;1.30;;;10.80;1.00;;;;;;5011295;28;20179;-69
2023/11/02 06:25:27;;;;;;;2.20;1.37;;;10.80;1.00;;;;;;5011143;28;20171;-69
2023/11/02 06:27:52;;;;;;;2.30;1.40;;;10.70;1.00;;;;;;5011384;28;20565;-69
2023/11/02 06:30:19;;;;;;;2.87;1.10;;;10.60;1.00;;;;;;5011113;28;20365;-69
2023/11/02 06:32:45;;;;;;;1.80;0.90;;;10.60;1.00;;;;;;5011311;28;20206;-69
2023/11/02 06:35:10;;;;;;;1.90;0.90;;;10.40;1.00;;;;;;5009967;28;20556;-69
2023/11/02 06:37:59;;;;;;;2.10;1.17;;;10.50;1.00;;;;;;5014866;28;20185;-69
2023/11/02 06:40:25;;;;;;;2.77;1.20;;;10.40;1.00;;;;;;5015094;28;20198;-69
2023/11/02 06:42:51;;;;;;;1.57;0.63;;;10.40;1.00;;;;;;5015188;28;20421;-69
2023/11/02 06:45:17;;;;;;;2.33;1.20;;;10.40;1.00;;;;;;5015060;28;20918;-69
2023/11/02 06:47:43;;;;;;;3.10;1.60;;;10.40;1.00;;;;;;5015131;28;20517;-69
2023/11/02 06:50:09;;;;;;;1.90;0.90;;;10.40;1.00;;;;;;5014709;28;20421;-69
2023/11/02 06:52:35;;;;;;;3.37;1.40;;;10.30;1.00;;;;;;5014755;28;20187;-69
2023/11/02 06:55:01;;;;;;;1.70;0.80;;;10.30;1.00;;;;;;5014915;28;20465;-69
2023/11/02 06:57:26;;;;;;;5.63;1.93;;;10.30;1.00;;;;;;5014992;28;20426;-69
2023/11/02 06:59:52;;;;;;;2.43;1.57;;;10.30;1.00;;;;;;5014796;28;20257;-69
2023/11/02 07:02:19;;;;;;;2.27;1.10;;;10.20;1.00;;;;;;5014986;28;20624;-69
2023/11/02 07:04:44;;;;;;;5.57;1.10;;;10.10;1.00;;;;;;5014636;28;20196;-69
2023/11/02 07:07:10;;;;;;;4.90;1.00;;;10.10;1.00;;;;;;5014586;28;20517;-69
2023/11/02 07:09:35;;;;;;;4.53;1.97;;;10.00;3.10;;;;;;5014524;28;20195;-69
2023/11/02 07:12:03;;;;;;;5.10;1.10;;;10.00;4.70;;;;;;5014364;28;20303;-69
2023/11/02 07:14:28;;;;;;;2.33;1.37;;;10.00;6.20;;;;;;5014450;28;20237;-68
2023/11/02 07:16:54;;;;;;;3.20;1.60;;;10.00;9.90;;;;;;5014731;28;20478;-69
2023/11/02 07:19:19;;;;;;;2.80;1.10;;;10.00;9.70;;;;;;5012860;28;20544;-69
2023/11/02 07:21:45;;;;;;;2.50;1.23;;;10.00;11.30;;;;;;5013754;28;20694;-68
2023/11/02 07:24:10;;;;;;;2.03;1.00;;;9.90;10.30;;;;;;5014097;28;20262;-68
2023/11/02 07:26:38;;;;;;;1.70;1.07;;;10.00;9.70;;;;;;5012829;28;20221;-69
2023/11/02 07:29:04;;;;;;;2.90;1.20;;;10.00;9.70;;;;;;5014138;28;20184;-68
2023/11/02 07:31:29;;;;;;;2.10;1.40;;;10.00;7.90;;;;;;5013784;28;20966;-69
2023/11/02 07:33:55;;;;;;;3.43;1.10;;;10.00;9.70;;;;;;5013997;28;20191;-69
2023/11/02 07:36:20;;;;;;;5.40;1.50;;;10.00;8.30;;;;;;5013814;28;20675;-69
2023/11/02 07:38:46;;;;;;;2.67;1.27;;;10.00;8.30;;;;;;5013896;28;20644;-69
2023/11/02 07:41:12;;;;;;;3.83;2.03;;;10.10;9.10;;;;;;5013622;28;20275;-69
2023/11/02 07:43:38;;;;;;;2.27;1.07;;;10.10;6.80;;;;;;5013863;28;20182;-69
2023/11/02 07:46:03;;;;;;;2.63;1.20;;;10.10;8.20;;;;;;5014106;28;20434;-69
2023/11/02 07:48:29;;;;;;;3.33;1.40;;;10.10;9.50;;;;;;5012612;28;20183;-69
2023/11/02 07:50:54;;;;;;;3.50;2.00;;;10.00;9.90;;;;;;5013347;28;20784;-69
2023/11/02 07:53:20;;;;;;;5.43;1.50;;;9.90;13.80;;;;;;5013781;28;20595;-69
2023/11/02 07:55:46;;;;;;;2.50;1.30;;;9.80;14.40;;;;;;5013513;28;20204;-69
2023/11/02 07:58:13;;;;;;;3.40;1.37;;;9.80;16.40;;;;;;5013567;28;20431;-69
2023/11/02 08:00:38;;;;;;;4.17;1.47;;;9.70;17.70;;;;;;5013107;28;20196;-69
2023/11/02 08:03:04;;;;;;;2.43;1.30;;;9.60;16.90;;;;;;5012203;28;20437;-69
2023/11/02 08:05:29;;;;;;;2.33;1.07;;;9.60;16.60;;;;;;5013456;28;20214;-69
2023/11/02 08:07:55;;;;;;;3.60;1.90;;;9.60;17.90;;;;;;5013626;28;20278;-69
2023/11/02 08:10:20;;;;;;;2.87;1.53;;;9.60;18.50;;;;;;5012981;28;20614;-69
2023/11/02 08:12:46;;;;;;;4.40;1.90;;;9.70;19.40;;;;;;5013335;28;20230;-69
2023/11/02 08:15:11;;;;;;;3.50;1.90;;;9.70;20.30;;;;;;5013304;28;20597;-69
2023/11/02 08:17:39;;;;;;;3.90;1.50;;;9.70;19.80;;;;;;5013351;28;20172;-69
2023/11/02 08:20:05;;;;;;;3.73;2.00;;;9.70;20.70;;;;;;5012961;28;20230;-69
2023/11/02 08:22:31;;;;;;;4.97;2.07;;;9.80;21.20;;;;;;5013238;28;20536;-69
2023/11/02 08:24:56;;;;;;;5.60;2.30;;;9.90;21.70;;;;;;5013219;28;21013;-69
2023/11/02 08:27:22;;;;;;;2.83;1.60;;;9.90;21.60;;;;;;5013071;28;20649;-69
2023/11/02 08:29:47;;;;;;;3.00;1.73;;;9.90;19.20;;;;;;5013396;28;20230;-69
2023/11/02 08:32:13;;;;;;;2.57;1.47;;;10.00;17.50;;;;;;5012975;28;20206;-69
2023/11/02 08:34:40;;;;;;;3.33;1.80;;;10.00;18.30;;;;;;5012921;28;20180;-70
2023/11/02 08:37:08;;;;;;;4.03;2.00;;;10.00;16.30;;;;;;5028106;28;20294;-69
2023/11/02 08:39:35;;;;;;;3.57;1.70;;;10.00;16.30;;;;;;5013049;28;20834;-69
2023/11/02 08:42:00;;;;;;;2.63;1.10;;;10.00;16.20;;;;;;5012788;28;20429;-69
2023/11/02 08:44:26;;;;;;;4.17;1.40;;;10.00;18.30;;;;;;5013112;28;20488;-69
2023/11/02 08:46:53;;;;;;;5.20;1.50;;;10.10;18.40;;;;;;5013258;28;20629;-68
2023/11/02 08:49:20;;;;;;;2.70;1.10;;;10.10;19.20;;;;;;5012761;28;20594;-68
2023/11/02 08:51:46;;;;;;;4.37;1.53;;;10.20;18.00;;;;;;5012626;28;20522;-68
2023/11/02 08:54:11;;;;;;;2.53;1.50;;;10.20;17.80;;;;;;5012734;28;20498;-68
2023/11/02 08:56:37;;;;;;;2.87;1.70;;;10.30;18.60;;;;;;5012616;28;20200;-69
2023/11/02 08:59:03;;;;;;;2.13;1.20;;;10.50;18.50;;;;;;5010891;28;20671;-68
2023/11/02 09:01:29;;;;;;;1.60;0.70;;;10.60;16.90;;;;;;5012325;28;20192;-69
2023/11/02 09:03:56;;;;;;;2.20;1.10;;;10.80;15.20;;;;;;5012444;28;20418;-68
2023/11/02 09:06:23;;;;;;;2.80;1.37;;;11.10;13.30;;;;;;5012362;28;20176;-69
2023/11/02 09:08:49;;;;;;;2.87;1.57;;;11.40;11.60;;;;;;5027632;28;20806;-68
2023/11/02 09:11:15;;;;;;;2.40;0.90;;;11.60;11.30;;;;;;5012098;28;20552;-68
2023/11/02 09:13:41;;;;;;;2.83;1.07;;;11.80;10.90;;;;;;5012408;28;20581;-69
2023/11/02 09:16:07;;;;;;;4.30;1.00;;;11.90;9.70;;;;;;5012202;28;21050;-69
2023/11/02 09:18:33;;;;;;;2.70;1.50;;;11.90;8.40;;;;;;5012427;28;20184;-70
2023/11/02 09:20:58;;;;;;;2.70;1.40;;;11.90;8.90;;;;;;5012026;28;20795;-69
2023/11/02 09:23:26;;;;;;;2.90;1.50;;;11.90;8.70;;;;;;5012463;28;20179;-69
2023/11/02 09:25:52;;;;;;;2.03;1.13;;;11.80;9.50;;;;;;5012537;28;20645;-69
2023/11/02 09:28:17;;;;;;;2.23;1.03;;;11.80;7.60;;;;;;5012281;28;20474;-69
2023/11/02 09:30:45;;;;;;;2.77;1.27;;;11.90;8.40;;;;;;5011900;28;20967;-70
2023/11/02 09:33:11;;;;;;;2.87;1.33;;;11.80;8.70;;;;;;5011941;28;20179;-69
2023/11/02 09:35:36;;;;;;;2.87;1.20;;;11.90;8.40;;;;;;5011946;28;20459;-70
2023/11/02 09:38:03;;;;;;;1.70;0.77;;;12.00;9.20;;;;;;5012087;28;20437;-69
2023/11/02 09:40:29;;;;;;;2.80;1.10;;;11.90;9.30;;;;;;5011625;28;20599;-69
2023/11/02 09:42:55;;;;;;;2.60;1.20;;;12.10;10.90;;;;;;5012017;28;20523;-69
2023/11/02 09:45:21;;;;;;;1.60;0.73;;;12.20;11.80;;;;;;5011881;28;20184;-69
2023/11/02 09:47:47;;;;;;;2.30;1.20;;;12.20;11.20;;;;;;5011768;28;20419;-69
2023/11/02 09:50:13;;;;;;;3.90;1.00;;;12.30;10.70;;;;;;5012142;28;20411;-69
2023/11/02 09:52:39;;;;;;;3.27;0.60;;;12.30;8.90;;;;;;5011844;28;20422;-69
2023/11/02 09:55:05;;;;;;;1.63;0.60;;;12.40;8.20;;;;;;5011650;28;20315;-69
2023/11/02 09:57:31;;;;;;;2.60;0.70;;;12.50;6.90;;;;;;5011579;28;20515;-69
2023/11/02 09:59:58;;;;;;;1.93;0.70;;;12.50;5.40;;;;;;5011301;28;20410;-69
2023/11/02 10:02:24;;;;;;;1.50;0.50;;;12.60;5.50;;;;;;5011472;28;20533;-69
2023/11/02 10:04:50;;;;;;;2.07;0.80;;;12.70;4.00;;;;;;5011637;28;20450;-69
2023/11/02 10:07:16;;;;;;;1.77;0.50;;;12.80;3.30;;;;;;5011650;28;20486;-69
2023/11/02 10:09:42;;;;;;;1.93;1.10;;;12.80;4.40;;;;;;5011558;28;20657;-69
2023/11/02 10:12:08;;;;;;;1.60;0.60;;;12.80;3.90;;;;;;5010496;28;21028;-69
2023/11/02 10:14:35;;;;;;;1.63;0.73;;;12.60;3.40;;;;;;5011457;28;20523;-69
2023/11/02 10:17:02;;;;;;;2.33;0.50;;;12.50;2.40;;;;;;5011399;28;20209;-69
2023/11/02 10:19:29;;;;;;;1.50;0.60;;;12.50;4.20;;;;;;5011418;28;20448;-69
2023/11/02 10:21:55;;;;;;;1.60;0.60;;;;;;;;;;5011328;28;20464;-69
2023/11/02 10:24:28;;;;;;;1.70;0.60;;;12.20;3.90;;;;;;5011716;28;20972;-69
2023/11/02 10:26:54;;;;;;;1.90;0.80;;;12.10;6.20;;;;;;5011547;28;20427;-69
2023/11/02 10:29:20;;;;;;;1.60;0.50;;;12.10;6.40;;;;;;5011272;28;20515;-68
2023/11/02 10:31:46;;;;;;;1.60;0.50;;;12.10;5.90;;;;;;5011106;28;20517;-68
2023/11/02 10:34:13;;;;;;;2.17;0.70;;;12.30;6.80;;;;;;5011415;28;20276;-69
2023/11/02 10:36:40;;;;;;;3.73;0.70;;;12.20;5.30;;;;;;5011213;28;20464;-69
2023/11/02 10:39:06;;;;;;;1.50;0.50;;;12.00;6.10;;;;;;5011329;28;20411;-69
2023/11/02 10:41:37;;;;;;;1.53;0.40;;;12.10;5.80;;;;;;5011052;28;20428;-69
2023/11/02 10:44:10;;;;;;;1.70;0.50;;;12.00;5.80;;;;;;5011308;28;20924;-69
2023/11/02 10:46:40;;;;;;;1.50;0.50;;;11.90;5.10;;;;;;5011177;28;20423;-69
2023/11/02 10:49:11;;;;;;;1.50;0.50;;;11.90;6.60;;;;;;5011227;28;20495;-69
2023/11/02 10:51:43;;;;;;;1.50;0.50;;;12.00;7.50;;;;;;5010983;28;20446;-69
2023/11/02 10:54:15;;;;;;;1.63;0.50;;;12.10;7.50;;;;;;5011289;28;20792;-69
2023/11/02 10:56:43;;;;;;;1.50;0.57;;;12.10;8.10;;;;;;5011220;28;20541;-69
2023/11/02 10:59:14;;;;;;;1.63;0.57;;;12.10;7.60;;;;;;5009845;28;20488;-69
2023/11/02 11:01:42;;;;;;;1.60;0.50;;;12.10;8.60;;;;;;5010723;28;20437;-68
2023/11/02 11:04:10;;;;;;;3.53;0.77;;;11.90;7.50;;;;;;5010985;28;20423;-68
2023/11/02 11:06:43;;;;;;;1.40;0.40;;;11.90;9.20;;;;;;5011065;28;20549;-69
2023/11/02 11:09:11;;;;;;;1.60;0.50;;;11.80;6.50;;;;;;5010894;28;20786;-68
2023/11/02 11:11:40;;;;;;;2.07;0.50;;;11.60;5.50;;;;;;5010575;28;20454;-68
2023/11/02 11:14:08;;;;;;;2.13;0.70;;;11.50;6.70;;;;;;5011224;28;20505;-69
2023/11/02 11:16:36;;;;;;;1.60;0.57;;;11.40;7.60;;;;;;5010932;28;20454;-68
2023/11/02 11:19:05;;;;;;;1.90;0.67;;;11.40;7.40;;;;;;5010931;28;20526;-69
2023/11/02 11:21:38;;;;;;;1.67;0.67;;;11.30;5.00;;;;;;5010694;28;20435;-68
2023/11/02 11:24:24;;;;;;;7.13;2.33;;;11.30;8.00;;;;;;5014491;28;20490;-69
2023/11/02 11:26:58;;;;;;;1.90;0.70;;;11.30;6.80;;;;;;5014842;28;20462;-70
2023/11/02 11:29:43;;;;;;;2.23;0.70;;;11.30;8.40;;;;;;5014278;28;20430;-70
2023/11/02 11:32:34;;;;;;;3.80;0.77;;;11.40;6.00;;;;;;5013924;28;20619;-70
2023/11/02 11:35:29;;;;;;;1.80;0.70;;;11.30;6.10;;;;;;4976628;28;20501;-69
2023/11/02 11:38:00;;;;;;;2.30;0.87;;;11.30;6.10;;;;;;5026674;28;20514;-69
2023/11/02 11:40:29;;;;;;;1.50;0.40;;;11.30;5.20;;;;;;5013920;28;20759;-69
2023/11/02 11:43:05;;;;;;;1.60;0.53;;;11.30;5.70;;;;;;5014235;28;20414;-69
2023/11/02 11:45:36;;;;;;;1.60;0.70;;;11.30;4.70;;;;;;5014221;28;20999;-70
2023/11/02 11:48:03;;;;;;;2.93;1.50;;;11.30;4.50;;;;;;5029303;28;20411;-69
2023/11/02 11:50:30;;;;;;;2.33;0.60;;;11.40;3.50;;;;;;5013652;28;20417;-70
2023/11/02 11:53:12;;;;;;;1.90;0.80;;;11.40;4.70;;;;;;5014291;28;20487;-70
2023/11/02 11:55:38;;;;;;;2.23;1.00;;;11.50;2.10;;;;;;5014069;28;20795;-70
2023/11/02 11:58:06;;;;;;;6.20;0.70;;;11.50;1.70;;;;;;5014109;28;20418;-70
2023/11/02 12:00:32;;;;;;;3.20;0.80;;;11.60;1.80;;;;;;5013696;28;20852;-70
2023/11/02 12:03:03;;;;;;;1.73;0.80;;;11.50;1.00;;;;;;5012781;28;20419;-70
2023/11/02 12:05:44;;;;;;;2.00;0.97;;;11.50;1.70;;;;;;5014063;28;20544;-70
2023/11/02 12:08:11;;;;;;;2.20;0.90;;;11.50;1.70;;;;;;5013745;28;20443;-70
2023/11/02 12:10:48;;;;;;;2.30;1.00;;;11.50;1.70;;;;;;5013277;28;20454;-70
2023/11/02 12:13:13;;;;;;;2.90;0.70;;;11.50;1.00;;;;;;5013737;28;20461;-70
2023/11/02 12:15:58;;;;;;;2.30;0.90;;;11.50;1.00;;;;;;5013433;28;20462;-70
2023/11/02 12:18:33;;;;;;;2.00;0.90;;;11.50;1.00;;;;;;5013611;28;20172;-70
2023/11/02 12:21:03;;;;;;;2.23;1.27;;;11.50;1.00;;;;;;5013322;28;20427;-70
2023/11/02 12:23:32;;;;;;;2.10;0.80;;;11.50;2.70;;;;;;5013595;28;20411;-70
2023/11/02 12:25:58;;;;;;;1.73;0.60;;;11.40;2.30;;;;;;5013455;28;20486;-70
2023/11/02 12:28:24;;;;;;;3.40;0.80;;;11.40;1.70;;;;;;5013339;28;20444;-71
2023/11/02 12:30:50;;;;;;;1.87;0.80;;;11.40;1.70;;;;;;5013036;28;20951;-70
2023/11/02 12:33:22;;;;;;;1.90;0.80;;;11.50;1.70;;;;;;5012939;28;20264;-70
2023/11/02 12:35:55;;;;;;;2.53;1.00;;;11.50;2.70;;;;;;5013071;28;20508;-71
2023/11/02 12:38:50;;;;;;;2.40;0.90;;;11.50;1.40;;;;;;5013022;28;20416;-71
2023/11/02 12:41:31;;;;;;;2.63;1.07;;;11.50;1.00;;;;;;5012710;28;20427;-70
2023/11/02 12:44:08;;;;;;;2.33;1.13;;;11.40;2.10;;;;;;5013029;28;20415;-71
2023/11/02 12:46:36;;;;;;;2.20;0.90;;;11.40;2.50;;;;;;5013312;28;20411;-70
2023/11/02 12:49:18;;;;;;;2.83;0.60;;;11.40;2.50;;;;;;5013343;28;20407;-70
2023/11/02 12:51:50;;;;;;;2.23;0.97;;;11.30;3.00;;;;;;5012983;28;20435;-70
2023/11/02 12:54:17;;;;;;;1.53;0.70;;;11.30;4.00;;;;;;5012998;28;20417;-72
2023/11/02 12:56:46;;;;;;;2.43;1.13;;;11.40;4.70;;;;;;5013502;28;20523;-71
2023/11/02 12:59:12;;;;;;;2.10;1.20;;;11.40;4.30;;;;;;5013319;28;20419;-71
2023/11/02 13:01:53;;;;;;;2.00;0.83;;;11.50;3.40;;;;;;5012738;28;20454;-69
2023/11/02 13:04:23;;;;;;;2.70;0.90;;;11.40;2.90;;;;;;5012837;28;20613;-70
2023/11/02 13:06:51;;;;;;;3.00;0.70;;;11.40;3.20;;;;;;5012676;28;20411;-70
2023/11/02 13:09:17;;;;;;;1.90;0.93;;;11.30;5.30;;;;;;5012499;28;20865;-69
2023/11/02 13:12:05;;;;;;;2.43;0.87;;;11.30;3.50;;;;;;5012462;28;20877;-68
2023/11/02 13:14:31;;;;;;;1.80;0.70;;;11.20;4.80;;;;;;5011022;28;20439;-69